TFX53 YBCS-YPDN
Flight info
| Callsign | TFX53 |
|---|---|
| Flight time | 2h 21m |
| Altitude | 38000 |
| Route | PUNIT J61 DUMAV Q91 ALLEE Q23 VEGPU |
| Aircraft | B738/M-SDE2E3FGHIRWXY/LB1 |
Departure
| Time | 2026-05-06 10:01 |
|---|---|
| Airport | Cairns International Airport (YBCS) |
Arrival
| Time | 2026-05-06 12:22 |
|---|---|
| Airport | Darwin International Airport / RAAF Darwin (YPDN) |
| Time | Latitude | Longitude | Altitude | Speed | Heading |
|---|---|---|---|---|---|
| 2026-05-06 09:49 | -16.87316 | 145.75279 | 15 ft | 0 kts | 157° |
| 2026-05-06 09:55 | -16.87303 | 145.75273 | 16 ft | 2 kts | 159° |
| 2026-05-06 09:55 | -16.87288 | 145.75268 | 19 ft | 2 kts | 162° |
| 2026-05-06 09:55 | -16.87272 | 145.75263 | 17 ft | 2 kts | 167° |
| 2026-05-06 09:56 | -16.87255 | 145.75260 | 18 ft | 2 kts | 176° |
| 2026-05-06 09:56 | -16.87239 | 145.75260 | 17 ft | 2 kts | 192° |
| 2026-05-06 09:56 | -16.87224 | 145.75267 | 18 ft | 2 kts | 220° |
| 2026-05-06 09:56 | -16.87213 | 145.75279 | 15 ft | 2 kts | 242° |
| 2026-05-06 09:57 | -16.87211 | 145.75284 | 15 ft | 0 kts | 245° |
| 2026-05-06 09:58 | -16.87212 | 145.75282 | 15 ft | 1 kts | 245° |
| 2026-05-06 09:58 | -16.87222 | 145.75259 | 19 ft | 6 kts | 246° |
| 2026-05-06 09:58 | -16.87248 | 145.75195 | 17 ft | 13 kts | 246° |
| 2026-05-06 09:58 | -16.87295 | 145.75084 | 17 ft | 20 kts | 246° |
| 2026-05-06 09:59 | -16.87311 | 145.74939 | 16 ft | 22 kts | 291° |
| 2026-05-06 09:59 | -16.87206 | 145.74835 | 15 ft | 22 kts | 336° |
| 2026-05-06 09:59 | -16.87074 | 145.74773 | 15 ft | 19 kts | 328° |
| 2026-05-06 09:59 | -16.87064 | 145.74667 | 14 ft | 15 kts | 249° |
| 2026-05-06 10:00 | -16.87125 | 145.74602 | 13 ft | 10 kts | 171° |
| 2026-05-06 10:00 | -16.87189 | 145.74629 | 15 ft | 22 kts | 156° |
| 2026-05-06 10:00 | -16.87784 | 145.74899 | 17 ft | 115 kts | 156° |
| 2026-05-06 10:00 | -16.88351 | 145.75162 | 17 ft | 153 kts | 156° |
| 2026-05-06 10:01 | -16.89456 | 145.75652 | 325 ft | 179 kts | 159° |
| 2026-05-06 10:01 | -16.90500 | 145.76318 | 1206 ft | 181 kts | 131° |
| 2026-05-06 10:01 | -16.90916 | 145.77607 | 1704 ft | 206 kts | 89° |
| 2026-05-06 10:01 | -16.90332 | 145.79070 | 1981 ft | 234 kts | 53° |
| 2026-05-06 10:02 | -16.88954 | 145.80074 | 2441 ft | 247 kts | 20° |
| 2026-05-06 10:02 | -16.87353 | 145.80525 | 3467 ft | 233 kts | 17° |
| 2026-05-06 10:02 | -16.85766 | 145.80941 | 3955 ft | 244 kts | 17° |
| 2026-05-06 10:02 | -16.84053 | 145.81290 | 4390 ft | 258 kts | 1° |
| 2026-05-06 10:03 | -16.82333 | 145.80752 | 5011 ft | 263 kts | 327° |
| 2026-05-06 10:03 | -16.81102 | 145.79361 | 5638 ft | 265 kts | 297° |
| 2026-05-06 10:03 | -16.80478 | 145.77488 | 6011 ft | 282 kts | 281° |
| 2026-05-06 10:03 | -16.80065 | 145.75472 | 6769 ft | 285 kts | 279° |
| 2026-05-06 10:04 | -16.79683 | 145.73445 | 7595 ft | 284 kts | 279° |
| 2026-05-06 10:04 | -16.79304 | 145.71421 | 8465 ft | 283 kts | 280° |
| 2026-05-06 10:04 | -16.78922 | 145.69407 | 9311 ft | 283 kts | 281° |
| 2026-05-06 10:04 | -16.78532 | 145.67376 | 10034 ft | 287 kts | 282° |
| 2026-05-06 10:05 | -16.78127 | 145.65291 | 10449 ft | 302 kts | 282° |
| 2026-05-06 10:05 | -16.77692 | 145.63074 | 10602 ft | 325 kts | 282° |
| 2026-05-06 10:05 | -16.77216 | 145.60669 | 10742 ft | 346 kts | 282° |
| 2026-05-06 10:05 | -16.76722 | 145.58176 | 10872 ft | 364 kts | 282° |
| 2026-05-06 10:06 | -16.76198 | 145.55547 | 11208 ft | 374 kts | 282° |
| 2026-05-06 10:06 | -16.75665 | 145.52875 | 11753 ft | 377 kts | 282° |
| 2026-05-06 10:06 | -16.75127 | 145.50188 | 12354 ft | 378 kts | 282° |
| 2026-05-06 10:06 | -16.74588 | 145.47493 | 12931 ft | 380 kts | 282° |
| 2026-05-06 10:07 | -16.74044 | 145.44782 | 13479 ft | 383 kts | 282° |
| 2026-05-06 10:07 | -16.73496 | 145.42050 | 13985 ft | 386 kts | 282° |
| 2026-05-06 10:07 | -16.72942 | 145.39295 | 14456 ft | 388 kts | 282° |
| 2026-05-06 10:07 | -16.72387 | 145.36529 | 14935 ft | 391 kts | 282° |
| 2026-05-06 10:08 | -16.71827 | 145.33746 | 15385 ft | 393 kts | 283° |
| 2026-05-06 10:08 | -16.71262 | 145.30937 | 15863 ft | 395 kts | 283° |
| 2026-05-06 10:08 | -16.70695 | 145.28125 | 16328 ft | 397 kts | 283° |
| 2026-05-06 10:08 | -16.70124 | 145.25290 | 16764 ft | 400 kts | 283° |
| 2026-05-06 10:09 | -16.69554 | 145.22467 | 17162 ft | 404 kts | 283° |
| 2026-05-06 10:09 | -16.68974 | 145.19591 | 17587 ft | 406 kts | 283° |
| 2026-05-06 10:09 | -16.68391 | 145.16704 | 18043 ft | 408 kts | 283° |
| 2026-05-06 10:09 | -16.67803 | 145.13798 | 18448 ft | 410 kts | 283° |
| 2026-05-06 10:10 | -16.67211 | 145.10868 | 18819 ft | 412 kts | 283° |
| 2026-05-06 10:10 | -16.66617 | 145.07935 | 19182 ft | 414 kts | 283° |
| 2026-05-06 10:10 | -16.66021 | 145.04992 | 19550 ft | 416 kts | 283° |
| 2026-05-06 10:10 | -16.65421 | 145.02035 | 19916 ft | 418 kts | 283° |
| 2026-05-06 10:11 | -16.64820 | 144.99068 | 20269 ft | 419 kts | 283° |
| 2026-05-06 10:11 | -16.64214 | 144.96085 | 20613 ft | 421 kts | 283° |
| 2026-05-06 10:11 | -16.63614 | 144.93129 | 20943 ft | 423 kts | 283° |
| 2026-05-06 10:11 | -16.62992 | 144.90123 | 21282 ft | 424 kts | 284° |
| 2026-05-06 10:12 | -16.62271 | 144.87127 | 21606 ft | 426 kts | 285° |
| 2026-05-06 10:12 | -16.61486 | 144.84145 | 21929 ft | 427 kts | 286° |
| 2026-05-06 10:12 | -16.60674 | 144.81156 | 22235 ft | 429 kts | 286° |
| 2026-05-06 10:12 | -16.59858 | 144.78162 | 22540 ft | 431 kts | 286° |
| 2026-05-06 10:13 | -16.59041 | 144.75151 | 22832 ft | 432 kts | 286° |
| 2026-05-06 10:13 | -16.58229 | 144.72128 | 23129 ft | 434 kts | 286° |
| 2026-05-06 10:13 | -16.57419 | 144.69095 | 23410 ft | 435 kts | 285° |
| 2026-05-06 10:13 | -16.56610 | 144.66051 | 23665 ft | 437 kts | 285° |
| 2026-05-06 10:14 | -16.55801 | 144.63003 | 23901 ft | 437 kts | 285° |
| 2026-05-06 10:14 | -16.54990 | 144.59943 | 24158 ft | 437 kts | 285° |
| 2026-05-06 10:14 | -16.54179 | 144.56885 | 24419 ft | 438 kts | 285° |
| 2026-05-06 10:14 | -16.53368 | 144.53829 | 24661 ft | 438 kts | 285° |
| 2026-05-06 10:15 | -16.52555 | 144.50765 | 24896 ft | 439 kts | 285° |
| 2026-05-06 10:15 | -16.51737 | 144.47687 | 25128 ft | 439 kts | 285° |
| 2026-05-06 10:15 | -16.50922 | 144.44622 | 25332 ft | 440 kts | 285° |
| 2026-05-06 10:15 | -16.50104 | 144.41547 | 25559 ft | 441 kts | 285° |
| 2026-05-06 10:16 | -16.49283 | 144.38465 | 25773 ft | 441 kts | 285° |
| 2026-05-06 10:16 | -16.48461 | 144.35382 | 25979 ft | 442 kts | 285° |
| 2026-05-06 10:16 | -16.47649 | 144.32334 | 26184 ft | 443 kts | 285° |
| 2026-05-06 10:16 | -16.46823 | 144.29237 | 26393 ft | 443 kts | 285° |
| 2026-05-06 10:17 | -16.45996 | 144.26143 | 26580 ft | 444 kts | 285° |
| 2026-05-06 10:17 | -16.45168 | 144.23043 | 26766 ft | 445 kts | 285° |
| 2026-05-06 10:17 | -16.44337 | 144.19934 | 26952 ft | 445 kts | 285° |
| 2026-05-06 10:17 | -16.43506 | 144.16827 | 27135 ft | 446 kts | 285° |
| 2026-05-06 10:18 | -16.42672 | 144.13712 | 27289 ft | 447 kts | 285° |
| 2026-05-06 10:18 | -16.41837 | 144.10595 | 27478 ft | 447 kts | 285° |
| 2026-05-06 10:18 | -16.40999 | 144.07467 | 27632 ft | 448 kts | 286° |
| 2026-05-06 10:18 | -16.40159 | 144.04334 | 27834 ft | 448 kts | 286° |
| 2026-05-06 10:19 | -16.39321 | 144.01211 | 28111 ft | 446 kts | 286° |
| 2026-05-06 10:19 | -16.38500 | 143.98153 | 28397 ft | 444 kts | 286° |
| 2026-05-06 10:19 | -16.37669 | 143.95059 | 28654 ft | 442 kts | 286° |
| 2026-05-06 10:19 | -16.36839 | 143.91971 | 28902 ft | 442 kts | 286° |
| 2026-05-06 10:20 | -16.36012 | 143.88899 | 29170 ft | 440 kts | 286° |
| 2026-05-06 10:20 | -16.35187 | 143.85832 | 29451 ft | 439 kts | 286° |
| 2026-05-06 10:20 | -16.34363 | 143.82774 | 29735 ft | 437 kts | 286° |
| 2026-05-06 10:20 | -16.33542 | 143.79728 | 30015 ft | 436 kts | 286° |
| 2026-05-06 10:21 | -16.32725 | 143.76698 | 30248 ft | 435 kts | 286° |
| 2026-05-06 10:21 | -16.31907 | 143.73667 | 30464 ft | 434 kts | 286° |
| 2026-05-06 10:21 | -16.31091 | 143.70645 | 30745 ft | 432 kts | 286° |
| 2026-05-06 10:21 | -16.30281 | 143.67645 | 31011 ft | 430 kts | 286° |
| 2026-05-06 10:22 | -16.29470 | 143.64648 | 31231 ft | 430 kts | 287° |
| 2026-05-06 10:22 | -16.28662 | 143.61659 | 31450 ft | 429 kts | 287° |
| 2026-05-06 10:22 | -16.27850 | 143.58660 | 31677 ft | 429 kts | 287° |
| 2026-05-06 10:22 | -16.27042 | 143.55675 | 31929 ft | 427 kts | 287° |
| 2026-05-06 10:23 | -16.26237 | 143.52703 | 32204 ft | 426 kts | 287° |
| 2026-05-06 10:23 | -16.25433 | 143.49739 | 32454 ft | 425 kts | 287° |
| 2026-05-06 10:23 | -16.24631 | 143.46781 | 32698 ft | 424 kts | 287° |
| 2026-05-06 10:23 | -16.23830 | 143.43833 | 32955 ft | 423 kts | 287° |
| 2026-05-06 10:24 | -16.23031 | 143.40890 | 33192 ft | 422 kts | 287° |
| 2026-05-06 10:24 | -16.22231 | 143.37946 | 33442 ft | 422 kts | 287° |
| 2026-05-06 10:24 | -16.21434 | 143.35014 | 33719 ft | 420 kts | 287° |
| 2026-05-06 10:24 | -16.20646 | 143.32117 | 33981 ft | 419 kts | 287° |
| 2026-05-06 10:25 | -16.19852 | 143.29200 | 34195 ft | 418 kts | 287° |
| 2026-05-06 10:25 | -16.19058 | 143.26282 | 34417 ft | 417 kts | 287° |
| 2026-05-06 10:25 | -16.18264 | 143.23370 | 34651 ft | 416 kts | 287° |
| 2026-05-06 10:25 | -16.17473 | 143.20476 | 34867 ft | 415 kts | 287° |
| 2026-05-06 10:26 | -16.16692 | 143.17620 | 35088 ft | 414 kts | 287° |
| 2026-05-06 10:26 | -16.15903 | 143.14738 | 35295 ft | 414 kts | 287° |
| 2026-05-06 10:26 | -16.15113 | 143.11854 | 35508 ft | 413 kts | 287° |
| 2026-05-06 10:26 | -16.14328 | 143.08990 | 35718 ft | 412 kts | 287° |
| 2026-05-06 10:27 | -16.13545 | 143.06132 | 35925 ft | 411 kts | 287° |
| 2026-05-06 10:27 | -16.12760 | 143.03269 | 36128 ft | 410 kts | 287° |
| 2026-05-06 10:27 | -16.11976 | 143.00411 | 36325 ft | 410 kts | 287° |
| 2026-05-06 10:27 | -16.11194 | 142.97561 | 36503 ft | 409 kts | 287° |
| 2026-05-06 10:28 | -16.10413 | 142.94719 | 36674 ft | 409 kts | 287° |
| 2026-05-06 10:28 | -16.09643 | 142.91917 | 36843 ft | 408 kts | 287° |
| 2026-05-06 10:28 | -16.08862 | 142.89075 | 37020 ft | 408 kts | 287° |
| 2026-05-06 10:28 | -16.08082 | 142.86239 | 37191 ft | 407 kts | 287° |
| 2026-05-06 10:29 | -16.07303 | 142.83411 | 37368 ft | 407 kts | 287° |
| 2026-05-06 10:29 | -16.06524 | 142.80579 | 37543 ft | 406 kts | 287° |
| 2026-05-06 10:29 | -16.05746 | 142.77757 | 37720 ft | 405 kts | 287° |
| 2026-05-06 10:29 | -16.04971 | 142.74946 | 37899 ft | 404 kts | 287° |
| 2026-05-06 10:30 | -16.03414 | 142.69304 | 37958 ft | 408 kts | 287° |
| 2026-05-06 10:30 | -16.01843 | 142.63619 | 37966 ft | 411 kts | 287° |
| 2026-05-06 10:31 | -16.00266 | 142.57914 | 37962 ft | 413 kts | 287° |
| 2026-05-06 10:31 | -15.98672 | 142.52155 | 37962 ft | 415 kts | 287° |
| 2026-05-06 10:32 | -15.97069 | 142.46370 | 37961 ft | 417 kts | 287° |
| 2026-05-06 10:32 | -15.95459 | 142.40567 | 37959 ft | 418 kts | 287° |
| 2026-05-06 10:33 | -15.93856 | 142.34797 | 37958 ft | 418 kts | 287° |
| 2026-05-06 10:33 | -15.92239 | 142.28981 | 37958 ft | 419 kts | 287° |
| 2026-05-06 10:34 | -15.90620 | 142.23166 | 37959 ft | 419 kts | 287° |
| 2026-05-06 10:34 | -15.88996 | 142.17337 | 37960 ft | 419 kts | 287° |
| 2026-05-06 10:35 | -15.87370 | 142.11510 | 37960 ft | 419 kts | 287° |
| 2026-05-06 10:35 | -15.85753 | 142.05720 | 37959 ft | 420 kts | 287° |
| 2026-05-06 10:36 | -15.84125 | 141.99893 | 37959 ft | 420 kts | 287° |
| 2026-05-06 10:36 | -15.82492 | 141.94059 | 37961 ft | 420 kts | 287° |
| 2026-05-06 10:37 | -15.80857 | 141.88229 | 37960 ft | 420 kts | 287° |
| 2026-05-06 10:37 | -15.79218 | 141.82402 | 37958 ft | 420 kts | 287° |
| 2026-05-06 10:38 | -15.77587 | 141.76603 | 37953 ft | 421 kts | 287° |
| 2026-05-06 10:38 | -15.75947 | 141.70779 | 37955 ft | 421 kts | 287° |
| 2026-05-06 10:39 | -15.74302 | 141.64944 | 37957 ft | 421 kts | 287° |
| 2026-05-06 10:39 | -15.72657 | 141.59113 | 37968 ft | 421 kts | 287° |
| 2026-05-06 10:40 | -15.71011 | 141.53284 | 37954 ft | 421 kts | 287° |
| 2026-05-06 10:40 | -15.69639 | 141.48431 | 37954 ft | 421 kts | 287° |
| 2026-05-06 10:41 | -15.67722 | 141.41657 | 37960 ft | 420 kts | 287° |
| 2026-05-06 10:41 | -15.66340 | 141.36780 | 37963 ft | 420 kts | 287° |
| 2026-05-06 10:42 | -15.64690 | 141.30962 | 37968 ft | 420 kts | 287° |
| 2026-05-06 10:42 | -15.63046 | 141.25174 | 37966 ft | 420 kts | 287° |
| 2026-05-06 10:43 | -15.61393 | 141.19357 | 37972 ft | 420 kts | 287° |
| 2026-05-06 10:44 | -15.58910 | 141.10635 | 37958 ft | 420 kts | 287° |
| 2026-05-06 10:44 | -15.57252 | 141.04815 | 37973 ft | 421 kts | 287° |
| 2026-05-06 10:45 | -15.55589 | 140.98990 | 37962 ft | 421 kts | 287° |
| 2026-05-06 10:45 | -15.53928 | 140.93174 | 37965 ft | 421 kts | 287° |
| 2026-05-06 10:46 | -15.52275 | 140.87392 | 37960 ft | 421 kts | 287° |
| 2026-05-06 10:46 | -15.50606 | 140.81561 | 37960 ft | 421 kts | 287° |
| 2026-05-06 10:47 | -15.48937 | 140.75739 | 37968 ft | 421 kts | 287° |
| 2026-05-06 10:47 | -15.47265 | 140.69910 | 37969 ft | 421 kts | 287° |
| 2026-05-06 10:48 | -15.45591 | 140.64079 | 37974 ft | 421 kts | 287° |
| 2026-05-06 10:48 | -15.43915 | 140.58249 | 37970 ft | 422 kts | 287° |
| 2026-05-06 10:49 | -15.42247 | 140.52455 | 37970 ft | 422 kts | 287° |
| 2026-05-06 10:49 | -15.40569 | 140.46630 | 37973 ft | 422 kts | 287° |
| 2026-05-06 10:50 | -15.38889 | 140.40803 | 37974 ft | 422 kts | 287° |
| 2026-05-06 10:50 | -15.37205 | 140.34971 | 37969 ft | 422 kts | 287° |
| 2026-05-06 10:51 | -15.35520 | 140.29140 | 37965 ft | 422 kts | 287° |
| 2026-05-06 10:51 | -15.33832 | 140.23307 | 37963 ft | 422 kts | 287° |
| 2026-05-06 10:52 | -15.32153 | 140.17511 | 37977 ft | 422 kts | 287° |
| 2026-05-06 10:52 | -15.30463 | 140.11679 | 37965 ft | 423 kts | 287° |
| 2026-05-06 10:53 | -15.28769 | 140.05843 | 37971 ft | 423 kts | 287° |
| 2026-05-06 10:53 | -15.27073 | 140.00006 | 37972 ft | 423 kts | 287° |
| 2026-05-06 10:54 | -15.25376 | 139.94173 | 37983 ft | 423 kts | 287° |
| 2026-05-06 10:54 | -15.23676 | 139.88332 | 37984 ft | 423 kts | 287° |
| 2026-05-06 10:55 | -15.21976 | 139.82501 | 37973 ft | 423 kts | 287° |
| 2026-05-06 10:55 | -15.20284 | 139.76702 | 37982 ft | 423 kts | 287° |
| 2026-05-06 10:56 | -15.18577 | 139.70857 | 37980 ft | 424 kts | 287° |
| 2026-05-06 10:56 | -15.16871 | 139.65023 | 37974 ft | 424 kts | 287° |
| 2026-05-06 10:57 | -15.15160 | 139.59177 | 37974 ft | 424 kts | 287° |
| 2026-05-06 10:57 | -15.13448 | 139.53332 | 37980 ft | 424 kts | 287° |
| 2026-05-06 10:58 | -15.11737 | 139.47498 | 37973 ft | 424 kts | 287° |
| 2026-05-06 10:58 | -15.10020 | 139.41650 | 37976 ft | 424 kts | 287° |
| 2026-05-06 10:59 | -15.08303 | 139.35809 | 37977 ft | 424 kts | 288° |
| 2026-05-06 10:59 | -15.06597 | 139.30010 | 37979 ft | 424 kts | 288° |
| 2026-05-06 11:00 | -15.04876 | 139.24165 | 37976 ft | 424 kts | 288° |
| 2026-05-06 11:00 | -15.03155 | 139.18327 | 37977 ft | 424 kts | 288° |
| 2026-05-06 11:01 | -15.01431 | 139.12483 | 37980 ft | 425 kts | 288° |
| 2026-05-06 11:01 | -14.99703 | 139.06634 | 37978 ft | 425 kts | 288° |
| 2026-05-06 11:02 | -14.97985 | 139.00824 | 37977 ft | 425 kts | 288° |
| 2026-05-06 11:02 | -14.96254 | 138.94973 | 37973 ft | 425 kts | 288° |
| 2026-05-06 11:03 | -14.94521 | 138.89125 | 37988 ft | 425 kts | 288° |
| 2026-05-06 11:03 | -14.92786 | 138.83275 | 37980 ft | 425 kts | 288° |
| 2026-05-06 11:04 | -14.91056 | 138.77453 | 37979 ft | 425 kts | 288° |
| 2026-05-06 11:04 | -14.89318 | 138.71604 | 37980 ft | 425 kts | 288° |
| 2026-05-06 11:05 | -14.87579 | 138.65756 | 37988 ft | 425 kts | 288° |
| 2026-05-06 11:05 | -14.85838 | 138.59910 | 37978 ft | 426 kts | 288° |
| 2026-05-06 11:06 | -14.84091 | 138.54049 | 37976 ft | 426 kts | 288° |
| 2026-05-06 11:06 | -14.82355 | 138.48229 | 37986 ft | 426 kts | 288° |
| 2026-05-06 11:07 | -14.80604 | 138.42366 | 37980 ft | 427 kts | 288° |
| 2026-05-06 11:07 | -14.78851 | 138.36502 | 37981 ft | 427 kts | 288° |
| 2026-05-06 11:08 | -14.77097 | 138.30638 | 37979 ft | 427 kts | 288° |
| 2026-05-06 11:08 | -14.75340 | 138.24772 | 37983 ft | 427 kts | 288° |
| 2026-05-06 11:09 | -14.73592 | 138.18942 | 37982 ft | 427 kts | 288° |
| 2026-05-06 11:09 | -14.71832 | 138.13079 | 37987 ft | 427 kts | 288° |
| 2026-05-06 11:10 | -14.70070 | 138.07213 | 37984 ft | 427 kts | 288° |
| 2026-05-06 11:10 | -14.68305 | 138.01345 | 37987 ft | 427 kts | 288° |
| 2026-05-06 11:11 | -14.66536 | 137.95468 | 37978 ft | 427 kts | 288° |
| 2026-05-06 11:11 | -14.64771 | 137.89610 | 37978 ft | 427 kts | 288° |
| 2026-05-06 11:12 | -14.63005 | 137.83754 | 37982 ft | 427 kts | 288° |
| 2026-05-06 11:12 | -14.61245 | 137.77925 | 37980 ft | 427 kts | 288° |
| 2026-05-06 11:13 | -14.59473 | 137.72060 | 37981 ft | 428 kts | 288° |
| 2026-05-06 11:13 | -14.57699 | 137.66196 | 37987 ft | 428 kts | 288° |
| 2026-05-06 11:14 | -14.55920 | 137.60322 | 37988 ft | 428 kts | 288° |
| 2026-05-06 11:14 | -14.54141 | 137.54454 | 37986 ft | 428 kts | 288° |
| 2026-05-06 11:15 | -14.52362 | 137.48588 | 37990 ft | 428 kts | 288° |
| 2026-05-06 11:15 | -14.50589 | 137.42753 | 37985 ft | 428 kts | 287° |
| 2026-05-06 11:16 | -14.48805 | 137.36882 | 37986 ft | 428 kts | 287° |
| 2026-05-06 11:16 | -14.47017 | 137.31007 | 37985 ft | 429 kts | 288° |
| 2026-05-06 11:17 | -14.45227 | 137.25130 | 37987 ft | 429 kts | 287° |
| 2026-05-06 11:17 | -14.43438 | 137.19261 | 37993 ft | 429 kts | 287° |
| 2026-05-06 11:18 | -14.41653 | 137.13415 | 37985 ft | 429 kts | 287° |
| 2026-05-06 11:18 | -14.39860 | 137.07543 | 37987 ft | 429 kts | 287° |
| 2026-05-06 11:19 | -14.38063 | 137.01669 | 37984 ft | 429 kts | 287° |
| 2026-05-06 11:19 | -14.36264 | 136.95791 | 37993 ft | 429 kts | 287° |
| 2026-05-06 11:20 | -14.34473 | 136.89943 | 37995 ft | 429 kts | 287° |
| 2026-05-06 11:20 | -14.32670 | 136.84066 | 38001 ft | 430 kts | 287° |
| 2026-05-06 11:21 | -14.30864 | 136.78182 | 37997 ft | 430 kts | 287° |
| 2026-05-06 11:21 | -14.29057 | 136.72301 | 37996 ft | 430 kts | 287° |
| 2026-05-06 11:22 | -14.27249 | 136.66422 | 37994 ft | 430 kts | 287° |
| 2026-05-06 11:22 | -14.25439 | 136.60541 | 37992 ft | 430 kts | 287° |
| 2026-05-06 11:23 | -14.23628 | 136.54664 | 37992 ft | 430 kts | 287° |
| 2026-05-06 11:23 | -14.21814 | 136.48783 | 37993 ft | 431 kts | 287° |
| 2026-05-06 11:24 | -14.20303 | 136.43888 | 37996 ft | 431 kts | 287° |
| 2026-05-06 11:24 | -14.18189 | 136.37048 | 37994 ft | 431 kts | 287° |
| 2026-05-06 11:25 | -14.16392 | 136.31150 | 37995 ft | 431 kts | 285° |
| 2026-05-06 11:25 | -14.14919 | 136.25168 | 38002 ft | 431 kts | 283° |
| 2026-05-06 11:26 | -14.13783 | 136.20170 | 37996 ft | 431 kts | 283° |
| 2026-05-06 11:26 | -14.12396 | 136.14160 | 37996 ft | 431 kts | 283° |
| 2026-05-06 11:27 | -14.10980 | 136.08164 | 37991 ft | 431 kts | 284° |
| 2026-05-06 11:27 | -14.09550 | 136.02166 | 37998 ft | 431 kts | 284° |
| 2026-05-06 11:28 | -14.08114 | 135.96166 | 37996 ft | 431 kts | 284° |
| 2026-05-06 11:28 | -14.06676 | 135.90165 | 37997 ft | 431 kts | 284° |
| 2026-05-06 11:29 | -14.05238 | 135.84166 | 37998 ft | 431 kts | 284° |
| 2026-05-06 11:29 | -14.03799 | 135.78170 | 38003 ft | 431 kts | 284° |
| 2026-05-06 11:30 | -14.02365 | 135.72201 | 37998 ft | 431 kts | 284° |
| 2026-05-06 11:30 | -14.00923 | 135.66208 | 38004 ft | 431 kts | 284° |
| 2026-05-06 11:31 | -13.99474 | 135.60190 | 37998 ft | 431 kts | 284° |
| 2026-05-06 11:31 | -13.98028 | 135.54191 | 38004 ft | 431 kts | 284° |
| 2026-05-06 11:32 | -13.96579 | 135.48187 | 38006 ft | 432 kts | 284° |
| 2026-05-06 11:32 | -13.95130 | 135.42191 | 38008 ft | 432 kts | 284° |
| 2026-05-06 11:33 | -13.93677 | 135.36182 | 38007 ft | 432 kts | 284° |
| 2026-05-06 11:33 | -13.92223 | 135.30179 | 38007 ft | 432 kts | 284° |
| 2026-05-06 11:34 | -13.90778 | 135.24217 | 38008 ft | 432 kts | 284° |
| 2026-05-06 11:34 | -13.89321 | 135.18217 | 38010 ft | 432 kts | 284° |
| 2026-05-06 11:35 | -13.87862 | 135.12211 | 38016 ft | 432 kts | 284° |
| 2026-05-06 11:35 | -13.86402 | 135.06211 | 38010 ft | 432 kts | 284° |
| 2026-05-06 11:36 | -13.84942 | 135.00214 | 38018 ft | 432 kts | 284° |
| 2026-05-06 11:36 | -13.83477 | 134.94208 | 38014 ft | 432 kts | 284° |
| 2026-05-06 11:37 | -13.82015 | 134.88217 | 38014 ft | 431 kts | 284° |
| 2026-05-06 11:37 | -13.80552 | 134.82230 | 38014 ft | 432 kts | 284° |
| 2026-05-06 11:38 | -13.79086 | 134.76238 | 38016 ft | 432 kts | 284° |
| 2026-05-06 11:38 | -13.77618 | 134.70245 | 38009 ft | 432 kts | 284° |
| 2026-05-06 11:39 | -13.76148 | 134.64246 | 38014 ft | 432 kts | 284° |
| 2026-05-06 11:39 | -13.74684 | 134.58283 | 38016 ft | 432 kts | 284° |
| 2026-05-06 11:40 | -13.73214 | 134.52300 | 38010 ft | 432 kts | 284° |
| 2026-05-06 11:40 | -13.71738 | 134.46298 | 38012 ft | 432 kts | 284° |
| 2026-05-06 11:41 | -13.70270 | 134.40338 | 38011 ft | 432 kts | 284° |
| 2026-05-06 11:41 | -13.68793 | 134.34343 | 38014 ft | 432 kts | 284° |
| 2026-05-06 11:42 | -13.67317 | 134.28347 | 38017 ft | 432 kts | 283° |
| 2026-05-06 11:42 | -13.65998 | 134.22302 | 38020 ft | 433 kts | 282° |
| 2026-05-06 11:43 | -13.64751 | 134.16242 | 38018 ft | 433 kts | 282° |
| 2026-05-06 11:43 | -13.63489 | 134.10186 | 38017 ft | 433 kts | 282° |
| 2026-05-06 11:44 | -13.61576 | 134.01145 | 38018 ft | 433 kts | 282° |
| 2026-05-06 11:44 | -13.60288 | 133.95090 | 38018 ft | 433 kts | 282° |
| 2026-05-06 11:45 | -13.59001 | 133.89043 | 38024 ft | 433 kts | 282° |
| 2026-05-06 11:45 | -13.57711 | 133.82993 | 38021 ft | 433 kts | 282° |
| 2026-05-06 11:46 | -13.56419 | 133.76937 | 38025 ft | 433 kts | 282° |
| 2026-05-06 11:46 | -13.55125 | 133.70884 | 38027 ft | 433 kts | 282° |
| 2026-05-06 11:47 | -13.53830 | 133.64830 | 38025 ft | 433 kts | 282° |
| 2026-05-06 11:47 | -13.52534 | 133.58777 | 38024 ft | 434 kts | 282° |
| 2026-05-06 11:48 | -13.51242 | 133.52752 | 38027 ft | 434 kts | 282° |
| 2026-05-06 11:48 | -13.49943 | 133.46702 | 38027 ft | 434 kts | 282° |
| 2026-05-06 11:49 | -13.48639 | 133.40634 | 38026 ft | 434 kts | 282° |
| 2026-05-06 11:49 | -13.47336 | 133.34576 | 38026 ft | 434 kts | 282° |
| 2026-05-06 11:50 | -13.46030 | 133.28513 | 38024 ft | 434 kts | 282° |
| 2026-05-06 11:50 | -13.44878 | 133.22456 | 38014 ft | 435 kts | 276° |
| 2026-05-06 11:51 | -13.44305 | 133.16273 | 38025 ft | 435 kts | 276° |
| 2026-05-06 11:51 | -13.43760 | 133.10084 | 38022 ft | 435 kts | 276° |
| 2026-05-06 11:52 | -13.43196 | 133.03894 | 38020 ft | 435 kts | 276° |
| 2026-05-06 11:52 | -13.42616 | 132.97700 | 38018 ft | 435 kts | 276° |
| 2026-05-06 11:53 | -13.42030 | 132.91496 | 38013 ft | 435 kts | 276° |
| 2026-05-06 11:53 | -13.41443 | 132.85299 | 38007 ft | 436 kts | 276° |
| 2026-05-06 11:54 | -13.40855 | 132.79105 | 38010 ft | 436 kts | 276° |
| 2026-05-06 11:54 | -13.40269 | 132.72941 | 38002 ft | 436 kts | 276° |
| 2026-05-06 11:55 | -13.39678 | 132.66748 | 38006 ft | 436 kts | 276° |
| 2026-05-06 11:55 | -13.39083 | 132.60528 | 38001 ft | 436 kts | 276° |
| 2026-05-06 11:56 | -13.38489 | 132.54330 | 38002 ft | 436 kts | 276° |
| 2026-05-06 11:56 | -13.37893 | 132.48126 | 37998 ft | 437 kts | 276° |
| 2026-05-06 11:57 | -13.37294 | 132.41914 | 38003 ft | 437 kts | 276° |
| 2026-05-06 11:57 | -13.36694 | 132.35705 | 38004 ft | 437 kts | 276° |
| 2026-05-06 11:58 | -13.36097 | 132.29535 | 38000 ft | 437 kts | 276° |
| 2026-05-06 11:58 | -13.35494 | 132.23323 | 37992 ft | 437 kts | 276° |
| 2026-05-06 11:59 | -13.34888 | 132.17103 | 37995 ft | 437 kts | 276° |
| 2026-05-06 11:59 | -13.34281 | 132.10880 | 37991 ft | 438 kts | 276° |
| 2026-05-06 12:00 | -13.33673 | 132.04667 | 37999 ft | 438 kts | 276° |
| 2026-05-06 12:00 | -13.33066 | 131.98474 | 37997 ft | 438 kts | 276° |
| 2026-05-06 12:01 | -13.31834 | 131.92415 | 37724 ft | 431 kts | 289° |
| 2026-05-06 12:01 | -13.30686 | 131.89581 | 37230 ft | 427 kts | 294° |
| 2026-05-06 12:01 | -13.29208 | 131.86941 | 36601 ft | 427 kts | 302° |
| 2026-05-06 12:02 | -13.27496 | 131.84455 | 36041 ft | 425 kts | 303° |
| 2026-05-06 12:02 | -13.25764 | 131.81990 | 35469 ft | 423 kts | 303° |
| 2026-05-06 12:02 | -13.24046 | 131.79547 | 34916 ft | 421 kts | 303° |
| 2026-05-06 12:02 | -13.22361 | 131.77138 | 34382 ft | 419 kts | 303° |
| 2026-05-06 12:03 | -13.20667 | 131.74704 | 33826 ft | 417 kts | 303° |
| 2026-05-06 12:03 | -13.18984 | 131.72273 | 33220 ft | 417 kts | 303° |
| 2026-05-06 12:03 | -13.17308 | 131.69848 | 32633 ft | 416 kts | 303° |
| 2026-05-06 12:03 | -13.15636 | 131.67427 | 32055 ft | 415 kts | 303° |
| 2026-05-06 12:04 | -13.13966 | 131.65010 | 31481 ft | 415 kts | 303° |
| 2026-05-06 12:04 | -13.12299 | 131.62598 | 30926 ft | 414 kts | 303° |
| 2026-05-06 12:04 | -13.10639 | 131.60196 | 30382 ft | 412 kts | 303° |
| 2026-05-06 12:04 | -13.08976 | 131.57792 | 29804 ft | 411 kts | 303° |
| 2026-05-06 12:05 | -13.07322 | 131.55401 | 29180 ft | 409 kts | 303° |
| 2026-05-06 12:05 | -13.05674 | 131.53021 | 28560 ft | 408 kts | 303° |
| 2026-05-06 12:05 | -13.04000 | 131.50735 | 27959 ft | 405 kts | 309° |
| 2026-05-06 12:05 | -13.02029 | 131.48663 | 27351 ft | 397 kts | 316° |
| 2026-05-06 12:06 | -12.99881 | 131.46977 | 26773 ft | 390 kts | 323° |
| 2026-05-06 12:06 | -12.97650 | 131.45442 | 26208 ft | 383 kts | 323° |
| 2026-05-06 12:06 | -12.95458 | 131.43944 | 25653 ft | 376 kts | 324° |
| 2026-05-06 12:06 | -12.93303 | 131.42466 | 25107 ft | 370 kts | 324° |
| 2026-05-06 12:07 | -12.91891 | 131.41493 | 24751 ft | 366 kts | 324° |
| 2026-05-06 12:07 | -12.89796 | 131.40044 | 24225 ft | 361 kts | 324° |
| 2026-05-06 12:07 | -12.87041 | 131.38133 | 23526 ft | 354 kts | 324° |
| 2026-05-06 12:07 | -12.85010 | 131.36722 | 22899 ft | 350 kts | 324° |
| 2026-05-06 12:08 | -12.83680 | 131.35798 | 22512 ft | 348 kts | 324° |
| 2026-05-06 12:08 | -12.81685 | 131.34412 | 21910 ft | 344 kts | 324° |
| 2026-05-06 12:08 | -12.79712 | 131.33040 | 21324 ft | 341 kts | 324° |
| 2026-05-06 12:08 | -12.77752 | 131.31678 | 20752 ft | 338 kts | 324° |
| 2026-05-06 12:09 | -12.75810 | 131.30328 | 20187 ft | 335 kts | 324° |
| 2026-05-06 12:09 | -12.73886 | 131.28992 | 19634 ft | 333 kts | 323° |
| 2026-05-06 12:09 | -12.71972 | 131.27662 | 19094 ft | 331 kts | 323° |
| 2026-05-06 12:09 | -12.70076 | 131.26346 | 18563 ft | 329 kts | 323° |
| 2026-05-06 12:10 | -12.68190 | 131.25037 | 17999 ft | 327 kts | 323° |
| 2026-05-06 12:10 | -12.66310 | 131.23732 | 17384 ft | 325 kts | 323° |
| 2026-05-06 12:10 | -12.64441 | 131.22431 | 16801 ft | 323 kts | 323° |
| 2026-05-06 12:10 | -12.62585 | 131.21137 | 16220 ft | 324 kts | 322° |
| 2026-05-06 12:11 | -12.60975 | 131.19521 | 15637 ft | 326 kts | 303° |
| 2026-05-06 12:11 | -12.59981 | 131.17432 | 15099 ft | 329 kts | 289° |
| 2026-05-06 12:11 | -12.59256 | 131.15229 | 14562 ft | 333 kts | 287° |
| 2026-05-06 12:11 | -12.58538 | 131.12968 | 14027 ft | 336 kts | 288° |
| 2026-05-06 12:12 | -12.57800 | 131.10682 | 13447 ft | 339 kts | 288° |
| 2026-05-06 12:12 | -12.57048 | 131.08383 | 12846 ft | 342 kts | 288° |
| 2026-05-06 12:12 | -12.56283 | 131.06065 | 12249 ft | 344 kts | 288° |
| 2026-05-06 12:12 | -12.55511 | 131.03738 | 11671 ft | 346 kts | 288° |
| 2026-05-06 12:13 | -12.54734 | 131.01399 | 11098 ft | 347 kts | 288° |
| 2026-05-06 12:13 | -12.53952 | 130.99046 | 10541 ft | 349 kts | 288° |
| 2026-05-06 12:13 | -12.53171 | 130.96698 | 9985 ft | 350 kts | 288° |
| 2026-05-06 12:13 | -12.52384 | 130.94335 | 9390 ft | 351 kts | 288° |
| 2026-05-06 12:14 | -12.51594 | 130.91961 | 8790 ft | 350 kts | 288° |
| 2026-05-06 12:14 | -12.50821 | 130.89642 | 8281 ft | 339 kts | 288° |
| 2026-05-06 12:14 | -12.50068 | 130.87384 | 7785 ft | 330 kts | 288° |
| 2026-05-06 12:14 | -12.49335 | 130.85189 | 7323 ft | 322 kts | 289° |
| 2026-05-06 12:15 | -12.48619 | 130.83059 | 6966 ft | 311 kts | 289° |
| 2026-05-06 12:15 | -12.47917 | 130.80996 | 6602 ft | 303 kts | 289° |
| 2026-05-06 12:15 | -12.47228 | 130.78981 | 6240 ft | 296 kts | 289° |
| 2026-05-06 12:15 | -12.46563 | 130.77039 | 5868 ft | 290 kts | 289° |
| 2026-05-06 12:16 | -12.45902 | 130.75110 | 5495 ft | 285 kts | 289° |
| 2026-05-06 12:16 | -12.45251 | 130.73213 | 5131 ft | 280 kts | 289° |
| 2026-05-06 12:16 | -12.44607 | 130.71347 | 4758 ft | 276 kts | 289° |
| 2026-05-06 12:16 | -12.43706 | 130.69644 | 4385 ft | 270 kts | 314° |
| 2026-05-06 12:17 | -12.42208 | 130.68613 | 4046 ft | 254 kts | 344° |
| 2026-05-06 12:17 | -12.40534 | 130.68479 | 3710 ft | 234 kts | 17° |
| 2026-05-06 12:17 | -12.39090 | 130.69065 | 3367 ft | 220 kts | 31° |
| 2026-05-06 12:17 | -12.37754 | 130.69756 | 3178 ft | 208 kts | 32° |
| 2026-05-06 12:18 | -12.36741 | 130.70659 | 3048 ft | 183 kts | 69° |
| 2026-05-06 12:18 | -12.36611 | 130.71901 | 2972 ft | 184 kts | 95° |
| 2026-05-06 12:18 | -12.36731 | 130.73245 | 2720 ft | 190 kts | 102° |
| 2026-05-06 12:18 | -12.37006 | 130.74527 | 2465 ft | 182 kts | 106° |
| 2026-05-06 12:19 | -12.37356 | 130.75712 | 2269 ft | 166 kts | 110° |
| 2026-05-06 12:19 | -12.37702 | 130.76760 | 2065 ft | 147 kts | 110° |
| 2026-05-06 12:19 | -12.38022 | 130.77720 | 1883 ft | 140 kts | 110° |
| 2026-05-06 12:19 | -12.38338 | 130.78672 | 1704 ft | 140 kts | 110° |
| 2026-05-06 12:20 | -12.38650 | 130.79614 | 1526 ft | 142 kts | 110° |
| 2026-05-06 12:20 | -12.38970 | 130.80578 | 1343 ft | 142 kts | 110° |
| 2026-05-06 12:20 | -12.39290 | 130.81541 | 1153 ft | 143 kts | 110° |
| 2026-05-06 12:20 | -12.39599 | 130.82486 | 994 ft | 143 kts | 110° |
| 2026-05-06 12:21 | -12.39910 | 130.83512 | 853 ft | 152 kts | 110° |
| 2026-05-06 12:21 | -12.40251 | 130.84526 | 663 ft | 151 kts | 111° |
| 2026-05-06 12:21 | -12.40607 | 130.85557 | 407 ft | 156 kts | 111° |
| 2026-05-06 12:21 | -12.40959 | 130.86608 | 177 ft | 155 kts | 111° |
| 2026-05-06 12:22 | -12.41304 | 130.87623 | 93 ft | 146 kts | 110° |
| 2026-05-06 12:22 | -12.41575 | 130.88420 | 88 ft | 88 kts | 109° |
| 2026-05-06 12:22 | -12.41727 | 130.88860 | 89 ft | 57 kts | 109° |
| 2026-05-06 12:22 | -12.41834 | 130.89177 | 93 ft | 39 kts | 109° |
| 2026-05-06 12:23 | -12.41906 | 130.89383 | 91 ft | 24 kts | 124° |
| 2026-05-06 12:23 | -12.42033 | 130.89398 | 92 ft | 18 kts | 199° |
| 2026-05-06 12:23 | -12.42130 | 130.89335 | 91 ft | 17 kts | 239° |
| 2026-05-06 12:23 | -12.42129 | 130.89209 | 91 ft | 20 kts | 288° |
| 2026-05-06 12:24 | -12.42078 | 130.89058 | 91 ft | 25 kts | 289° |
| 2026-05-06 12:24 | -12.42016 | 130.88877 | 92 ft | 29 kts | 289° |
| 2026-05-06 12:24 | -12.41946 | 130.88669 | 90 ft | 33 kts | 289° |
| 2026-05-06 12:24 | -12.41869 | 130.88443 | 90 ft | 34 kts | 289° |
| 2026-05-06 12:25 | -12.41792 | 130.88214 | 91 ft | 34 kts | 289° |
| 2026-05-06 12:25 | -12.41716 | 130.87989 | 92 ft | 33 kts | 289° |
| 2026-05-06 12:25 | -12.41642 | 130.87769 | 91 ft | 32 kts | 289° |
| 2026-05-06 12:25 | -12.41572 | 130.87562 | 89 ft | 29 kts | 289° |
| 2026-05-06 12:26 | -12.41443 | 130.87449 | 91 ft | 26 kts | 4° |
| 2026-05-06 12:26 | -12.41284 | 130.87500 | 91 ft | 23 kts | 18° |
| 2026-05-06 12:26 | -12.41134 | 130.87553 | 89 ft | 22 kts | 19° |
| 2026-05-06 12:26 | -12.40990 | 130.87605 | 89 ft | 22 kts | 19° |
| 2026-05-06 12:27 | -12.40870 | 130.87533 | 89 ft | 21 kts | 314° |
| 2026-05-06 12:27 | -12.40756 | 130.87468 | 91 ft | 16 kts | 360° |
| 2026-05-06 12:27 | -12.40671 | 130.87473 | 90 ft | 6 kts | 27° |
| 2026-05-06 12:27 | -12.40667 | 130.87497 | 89 ft | 3 kts | 94° |
| 2026-05-06 12:28 | -12.40667 | 130.87518 | 89 ft | 2 kts | 89° |
| 2026-05-06 12:28 | -12.40667 | 130.87519 | 90 ft | 0 kts | 89° |